createdAt,value
2022-11-16T00:01:33.031Z,26.25
2022-11-16T00:04:01.867Z,33.13
2022-11-16T00:06:29.844Z,33.55
2022-11-16T00:09:18.643Z,33.28
2022-11-16T00:11:45.769Z,28.65
2022-11-16T00:14:12.757Z,31.17
2022-11-16T00:16:40.080Z,30.02
2022-11-16T00:19:07.386Z,31.73
2022-11-16T00:21:34.916Z,32.03
2022-11-16T00:24:02.696Z,31.92
2022-11-16T00:26:29.846Z,32.85
2022-11-16T00:28:58.009Z,33.20
2022-11-16T00:31:25.496Z,36.67
2022-11-16T00:33:53.164Z,32.47
2022-11-16T00:36:20.195Z,35.03
2022-11-16T00:38:47.346Z,37.17
2022-11-16T00:41:14.694Z,34.42
2022-11-16T00:43:41.663Z,33.88
2022-11-16T00:46:10.304Z,32.45
2022-11-16T00:48:37.432Z,36.80
2022-11-16T00:51:04.899Z,38.13
2022-11-16T00:53:32.019Z,33.08
2022-11-16T00:55:59.186Z,34.70
2022-11-16T00:58:26.145Z,33.80
2022-11-16T01:00:53.195Z,41.33
2022-11-16T01:03:20.220Z,34.83
2022-11-16T01:05:47.430Z,35.47
2022-11-16T01:08:14.703Z,38.05
2022-11-16T01:10:42.461Z,42.17
2022-11-16T01:13:11.042Z,36.00
2022-11-16T01:15:38.025Z,39.08
2022-11-16T01:18:05.071Z,39.15
2022-11-16T01:20:32.060Z,37.38
2022-11-16T01:22:59.041Z,42.00
2022-11-16T01:25:26.035Z,39.83
2022-11-16T01:27:52.996Z,34.35
2022-11-16T01:30:20.000Z,44.75
2022-11-16T01:32:46.941Z,34.88
2022-11-16T01:35:17.730Z,35.60
2022-11-16T01:37:45.685Z,38.17
2022-11-16T01:40:14.336Z,38.78
2022-11-16T01:42:42.031Z,35.47
2022-11-16T01:45:44.219Z,37.30
2022-11-16T01:48:14.320Z,33.47
2022-11-16T01:50:42.568Z,32.65
2022-11-16T01:53:12.678Z,35.22
2022-11-16T01:55:42.483Z,29.58
2022-11-16T01:58:15.432Z,38.35
2022-11-16T02:00:42.448Z,35.30
2022-11-16T02:03:09.434Z,36.67
2022-11-16T02:06:03.877Z,38.13
2022-11-16T02:08:57.978Z,39.00
2022-11-16T02:12:10.155Z,39.55
2022-11-16T02:15:09.251Z,34.10
2022-11-16T02:17:58.072Z,42.17
2022-11-16T02:20:49.283Z,44.30
2022-11-16T02:23:37.104Z,39.88
2022-11-16T02:26:19.153Z,39.95
2022-11-16T02:29:07.422Z,39.80
2022-11-16T02:31:40.644Z,34.03
2022-11-16T02:34:11.364Z,42.60
2022-11-16T02:36:41.701Z,43.55
2022-11-16T02:39:14.785Z,41.97
2022-11-16T02:41:44.359Z,36.38
2022-11-16T02:44:28.349Z,38.50
2022-11-16T02:46:59.715Z,34.25
2022-11-16T02:49:28.698Z,39.10
2022-11-16T02:51:57.876Z,40.97
2022-11-16T02:54:25.198Z,43.70
2022-11-16T02:57:13.959Z,44.28
2022-11-16T02:59:44.744Z,48.58
2022-11-16T03:02:36.831Z,44.53
2022-11-16T03:05:13.469Z,57.33
2022-11-16T03:08:11.366Z,48.03
2022-11-16T03:10:59.497Z,45.60
2022-11-16T03:13:33.530Z,47.13
2022-11-16T03:16:04.915Z,48.15
2022-11-16T03:18:32.369Z,61.95
2022-11-16T03:21:15.143Z,52.97
2022-11-16T03:23:43.584Z,47.33
2022-11-16T03:26:13.349Z,48.00
2022-11-16T03:29:02.172Z,50.10
2022-11-16T03:31:39.538Z,59.60
2022-11-16T03:34:12.784Z,62.67
2022-11-16T03:36:42.617Z,62.90
2022-11-16T03:39:15.430Z,55.08
2022-11-16T03:41:45.990Z,55.60
2022-11-16T03:44:14.747Z,53.80
2022-11-16T03:46:43.572Z,51.10
2022-11-16T03:49:10.577Z,48.15
2022-11-16T03:51:38.463Z,55.63
2022-11-16T03:54:05.875Z,70.15
2022-11-16T03:56:32.867Z,49.75
2022-11-16T03:58:59.887Z,56.40
2022-11-16T04:01:26.933Z,53.80
2022-11-16T04:03:54.003Z,55.58
2022-11-16T04:06:39.824Z,65.10
2022-11-16T04:09:25.511Z,44.95
2022-11-16T04:12:11.683Z,45.53
2022-11-16T04:14:58.059Z,48.17
2022-11-16T04:17:44.797Z,56.55
2022-11-16T04:20:32.926Z,64.05
2022-11-16T04:23:27.130Z,52.53
2022-11-16T04:25:54.430Z,53.65
2022-11-16T04:28:28.870Z,54.10
2022-11-16T04:31:18.046Z,48.85
2022-11-16T04:34:04.085Z,50.72
2022-11-16T04:36:49.733Z,42.70
2022-11-16T04:39:16.707Z,45.10
2022-11-16T04:42:02.457Z,58.75
2022-11-16T04:44:49.429Z,42.58
2022-11-16T04:47:16.491Z,42.30
2022-11-16T04:49:43.507Z,47.17
2022-11-16T04:52:10.729Z,54.58
2022-11-16T04:54:37.682Z,48.28
2022-11-16T04:57:04.777Z,43.45
2022-11-16T04:59:31.817Z,48.47
2022-11-16T05:02:11.116Z,49.28
2022-11-16T05:04:43.288Z,42.92
2022-11-16T05:07:13.844Z,48.40
2022-11-16T05:09:46.728Z,51.28
2022-11-16T05:12:16.647Z,48.95
2022-11-16T05:14:44.487Z,48.28
2022-11-16T05:17:12.777Z,42.50
2022-11-16T05:19:58.943Z,48.03
2022-11-16T05:22:26.004Z,49.15
2022-11-16T05:24:53.443Z,64.28
2022-11-16T05:27:23.134Z,47.67
2022-11-16T05:29:50.877Z,55.50
2022-11-16T05:32:19.656Z,52.20
2022-11-16T05:34:47.463Z,54.97
2022-11-16T05:37:15.603Z,45.42
2022-11-16T05:39:43.028Z,49.97
2022-11-16T05:42:10.437Z,67.07
2022-11-16T05:44:37.508Z,53.58
2022-11-16T05:47:04.521Z,56.65
2022-11-16T05:49:31.915Z,46.10
2022-11-16T05:51:58.924Z,55.95
2022-11-16T05:54:26.791Z,62.55
2022-11-16T05:56:55.146Z,47.00
2022-11-16T05:59:23.835Z,49.95
2022-11-16T06:01:51.638Z,54.50
2022-11-16T06:04:25.391Z,54.28
2022-11-16T06:06:53.148Z,46.47
2022-11-16T06:09:20.337Z,47.95
2022-11-16T06:11:47.364Z,53.05
2022-11-16T06:14:14.437Z,49.60
2022-11-16T06:16:41.613Z,45.20
2022-11-16T06:19:08.635Z,49.38
2022-11-16T06:21:35.712Z,49.78
2022-11-16T06:24:06.058Z,42.40
2022-11-16T06:26:33.010Z,36.25
2022-11-16T06:29:00.095Z,42.38
2022-11-16T06:31:27.147Z,47.45
2022-11-16T06:33:54.153Z,41.97
2022-11-16T06:36:21.312Z,52.63
2022-11-16T06:38:48.272Z,47.80
2022-11-16T06:41:15.309Z,41.53
2022-11-16T06:43:42.340Z,37.78
2022-11-16T06:46:09.336Z,44.55
2022-11-16T06:48:36.690Z,39.63
2022-11-16T06:51:04.111Z,43.50
2022-11-16T06:53:31.306Z,42.38
2022-11-16T06:56:06.431Z,48.08
2022-11-16T06:58:34.143Z,36.80
2022-11-16T07:01:12.172Z,42.05
2022-11-16T07:03:39.625Z,43.60
2022-11-16T07:06:12.319Z,47.33
2022-11-16T07:08:39.527Z,45.70
2022-11-16T07:11:08.203Z,40.33
2022-11-16T07:13:36.637Z,40.22
2022-11-16T07:16:08.647Z,45.28
2022-11-16T07:18:37.751Z,36.80
2022-11-16T07:21:10.086Z,41.90
2022-11-16T07:23:37.312Z,39.67
2022-11-16T07:26:06.653Z,45.70
2022-11-16T07:28:33.985Z,42.53
2022-11-16T07:31:06.035Z,39.25
2022-11-16T07:33:33.450Z,33.88
2022-11-16T07:36:14.779Z,38.25
2022-11-16T07:38:42.040Z,40.55
2022-11-16T07:41:12.676Z,39.25
2022-11-16T07:43:40.551Z,35.83
2022-11-16T07:49:09.827Z,39.15
2022-11-16T07:51:38.229Z,37.83
2022-11-16T07:54:06.687Z,32.00
2022-11-16T07:56:33.901Z,28.52
2022-11-16T07:59:01.675Z,30.20
2022-11-16T08:01:28.673Z,30.42
2022-11-16T08:03:55.745Z,29.77
2022-11-16T08:06:26.310Z,32.63
2022-11-16T08:08:58.064Z,33.20
2022-11-16T08:11:26.156Z,25.50
2022-11-16T08:13:53.167Z,26.60
2022-11-16T08:16:22.694Z,23.23
2022-11-16T08:18:50.008Z,19.90
2022-11-16T08:21:18.193Z,26.95
2022-11-16T08:23:47.105Z,26.33
2022-11-16T08:26:17.047Z,28.08
2022-11-16T08:28:46.065Z,29.75
2022-11-16T08:31:16.836Z,28.67
2022-11-16T08:33:43.943Z,24.40
2022-11-16T08:36:14.438Z,23.48
2022-11-16T08:38:41.689Z,25.00
2022-11-16T08:41:08.832Z,23.67
2022-11-16T08:43:36.114Z,22.00
2022-11-16T08:46:03.410Z,23.23
2022-11-16T08:48:30.978Z,21.85
2022-11-16T08:51:19.723Z,21.55
2022-11-16T08:53:49.622Z,22.40
2022-11-16T08:56:18.706Z,25.98
2022-11-16T08:58:55.264Z,21.95
2022-11-16T09:01:27.932Z,24.55
2022-11-16T09:03:55.721Z,23.58
2022-11-16T09:06:25.099Z,26.27
2022-11-16T09:08:52.670Z,20.50
2022-11-16T09:11:22.636Z,20.85
2022-11-16T09:13:52.889Z,26.30
2022-11-16T09:16:21.224Z,21.40
2022-11-16T09:18:49.647Z,18.50
2022-11-16T09:21:22.384Z,19.77
2022-11-16T09:23:49.784Z,16.13
2022-11-16T09:26:20.650Z,17.33
2022-11-16T09:28:55.581Z,16.88
2022-11-16T09:31:23.716Z,17.30
2022-11-16T09:33:51.220Z,20.27
2022-11-16T09:36:18.425Z,16.35
2022-11-16T09:42:01.131Z,13.95
2022-11-16T09:44:43.854Z,18.85
2022-11-16T09:47:21.942Z,14.70
2022-11-16T09:50:02.919Z,16.48
2022-11-16T09:52:40.348Z,14.00
2022-11-16T09:55:23.837Z,12.38
2022-11-16T09:57:55.713Z,14.73
2022-11-16T10:00:24.020Z,16.52
2022-11-16T10:03:04.421Z,14.70
2022-11-16T10:06:05.212Z,16.77
2022-11-16T10:08:50.330Z,15.52
2022-11-16T10:11:54.588Z,18.38
2022-11-16T10:14:40.306Z,14.23
2022-11-16T10:17:22.363Z,17.10
2022-11-16T10:20:14.004Z,17.40
2022-11-16T10:22:48.449Z,18.92
2022-11-16T10:25:21.467Z,18.30
2022-11-16T10:28:25.998Z,17.20
2022-11-16T10:31:20.702Z,15.90
2022-11-16T10:33:50.849Z,15.57
2022-11-16T10:36:21.430Z,15.68
2022-11-16T10:38:49.137Z,18.10
2022-11-16T10:41:41.231Z,18.63
2022-11-16T10:44:37.770Z,18.95
2022-11-16T10:47:34.025Z,13.35
2022-11-16T10:50:19.397Z,16.05
2022-11-16T10:52:46.471Z,17.98
2022-11-16T10:55:16.301Z,18.52
2022-11-16T10:58:02.412Z,17.50
2022-11-16T11:00:52.045Z,17.40
2022-11-16T11:03:32.329Z,19.63
2022-11-16T11:06:00.102Z,15.75
2022-11-16T11:08:31.472Z,20.50
2022-11-16T11:11:24.966Z,16.92
2022-11-16T11:14:14.268Z,17.77
2022-11-16T11:16:41.818Z,17.73
2022-11-16T11:19:29.582Z,18.00
2022-11-16T11:22:01.278Z,20.75
2022-11-16T11:24:43.845Z,22.25
2022-11-16T11:27:12.469Z,18.13
2022-11-16T11:29:43.595Z,16.83
2022-11-16T11:32:24.145Z,16.13
2022-11-16T11:34:56.377Z,19.50
2022-11-16T11:37:31.956Z,18.38
2022-11-16T11:40:24.968Z,18.75
2022-11-16T11:43:06.133Z,17.85
2022-11-16T11:45:51.701Z,14.80
2022-11-16T11:48:39.677Z,17.42
2022-11-16T11:51:22.933Z,16.67
2022-11-16T11:53:57.539Z,14.80
2022-11-16T11:56:26.684Z,14.65
2022-11-16T11:58:55.820Z,17.73
2022-11-16T12:01:51.964Z,18.92
2022-11-16T12:04:56.261Z,15.27
2022-11-16T12:08:04.993Z,15.82
2022-11-16T12:10:51.449Z,15.15
2022-11-16T12:13:39.180Z,16.73
2022-11-16T12:16:22.389Z,13.48
2022-11-16T12:19:11.689Z,13.00
2022-11-16T12:21:53.036Z,17.83
2022-11-16T12:24:31.750Z,13.95
2022-11-16T12:27:10.761Z,14.88
2022-11-16T12:29:55.768Z,15.60
2022-11-16T12:32:37.765Z,12.73
2022-11-16T12:35:28.013Z,16.08
2022-11-16T12:38:28.094Z,12.82
2022-11-16T12:41:09.609Z,21.90
2022-11-16T12:44:00.054Z,13.20
2022-11-16T12:46:45.921Z,13.98
2022-11-16T12:49:36.762Z,18.55
2022-11-16T12:52:12.940Z,24.38
2022-11-16T12:55:24.670Z,27.70
2022-11-16T12:57:53.000Z,29.33
2022-11-16T13:00:20.649Z,15.88
2022-11-16T13:03:04.501Z,17.88
2022-11-16T13:05:43.228Z,24.80
2022-11-16T13:08:32.045Z,17.90
2022-11-16T13:11:16.577Z,15.05
2022-11-16T13:13:51.448Z,20.27
2022-11-16T13:16:22.224Z,15.95
2022-11-16T13:18:49.478Z,14.85
2022-11-16T13:21:45.448Z,13.10
2022-11-16T13:24:29.842Z,15.43
2022-11-16T13:27:21.637Z,16.25
2022-11-16T13:30:06.209Z,12.55
2022-11-16T13:32:33.304Z,15.60
2022-11-16T13:35:01.168Z,13.63
2022-11-16T13:37:37.675Z,17.42
2022-11-16T13:40:05.037Z,13.45
2022-11-16T13:42:44.570Z,22.27
2022-11-16T13:45:23.230Z,16.40
2022-11-16T13:47:58.313Z,15.30
2022-11-16T13:50:38.044Z,17.60
2022-11-16T13:56:02.654Z,9.50
2022-11-16T13:58:32.121Z,12.45
2022-11-16T14:01:04.401Z,13.05
2022-11-16T14:03:38.636Z,13.00
2022-11-16T14:06:26.934Z,12.88
2022-11-16T14:08:54.975Z,18.23
2022-11-16T14:11:37.876Z,16.35
2022-11-16T14:14:52.340Z,16.77
2022-11-16T14:17:57.935Z,15.48
2022-11-16T14:20:40.168Z,11.13
2022-11-16T14:23:28.825Z,12.77
2022-11-16T14:26:10.761Z,13.80
2022-11-16T14:28:59.159Z,12.75
2022-11-16T14:31:29.313Z,12.20
2022-11-16T14:33:59.448Z,11.15
2022-11-16T14:36:42.338Z,14.93
2022-11-16T14:39:23.289Z,11.48
2022-11-16T14:41:51.426Z,13.13
2022-11-16T14:44:23.009Z,11.55
2022-11-16T14:46:50.309Z,10.18
2022-11-16T14:49:20.599Z,11.60
2022-11-16T14:51:55.239Z,12.13
2022-11-16T14:54:34.252Z,11.30
2022-11-16T14:57:06.968Z,10.20
2022-11-16T14:59:34.270Z,12.30
2022-11-16T15:02:33.151Z,15.25
2022-11-16T15:05:00.612Z,13.13
2022-11-16T15:07:30.425Z,17.25
2022-11-16T15:10:02.008Z,15.30
2022-11-16T15:12:44.600Z,10.55
2022-11-16T15:15:11.588Z,14.25
2022-11-16T15:18:06.765Z,21.00
2022-11-16T15:20:46.969Z,19.88
2022-11-16T15:23:15.560Z,13.73
2022-11-16T15:25:54.725Z,15.90
2022-11-16T15:28:22.980Z,16.35
2022-11-16T15:30:58.508Z,15.95
2022-11-16T15:33:39.521Z,14.90
2022-11-16T15:36:38.428Z,14.95
2022-11-16T15:39:10.486Z,16.25
2022-11-16T15:41:39.021Z,14.00
2022-11-16T15:44:14.790Z,10.98
2022-11-16T15:46:47.931Z,16.77
2022-11-16T15:49:31.865Z,14.90
2022-11-16T15:52:00.146Z,13.63
2022-11-16T15:54:54.901Z,11.35
2022-11-16T15:57:24.002Z,12.43
2022-11-16T15:59:56.441Z,20.83
2022-11-16T16:02:27.762Z,15.60
2022-11-16T16:04:54.891Z,13.00
2022-11-16T16:07:43.261Z,13.15
2022-11-16T16:10:19.391Z,16.10
2022-11-16T16:12:58.373Z,16.98
2022-11-16T16:15:27.499Z,21.10
2022-11-16T16:17:54.934Z,14.30
2022-11-16T16:20:24.812Z,18.30
2022-11-16T16:22:52.604Z,17.15
2022-11-16T16:25:28.910Z,12.40
2022-11-16T16:27:56.175Z,17.83
2022-11-16T16:30:23.253Z,14.32
2022-11-16T16:32:50.992Z,15.90
2022-11-16T16:35:21.440Z,14.88
2022-11-16T16:37:50.308Z,14.10
2022-11-16T16:40:20.666Z,14.40
2022-11-16T16:42:51.168Z,14.38
2022-11-16T16:45:31.130Z,19.05
2022-11-16T16:47:58.630Z,16.38
2022-11-16T16:50:25.724Z,23.58
2022-11-16T16:52:54.431Z,20.85
2022-11-16T16:55:21.833Z,21.83
2022-11-16T16:57:48.859Z,23.67
2022-11-16T17:00:18.066Z,24.55
2022-11-16T17:02:45.561Z,28.92
2022-11-16T17:05:15.056Z,16.25
2022-11-16T17:07:42.461Z,16.92
2022-11-16T17:10:10.069Z,23.58
2022-11-16T17:12:37.173Z,15.90
2022-11-16T17:15:04.812Z,19.50
2022-11-16T17:17:32.288Z,17.88
2022-11-16T17:19:59.596Z,21.55
2022-11-16T17:22:27.387Z,26.58
2022-11-16T17:24:54.908Z,29.38
2022-11-16T17:27:23.207Z,34.25
2022-11-16T17:29:50.486Z,32.28
2022-11-16T17:32:18.029Z,27.77
2022-11-16T17:34:45.629Z,28.98
2022-11-16T17:37:14.289Z,17.20
2022-11-16T17:39:41.945Z,24.58
2022-11-16T17:42:10.909Z,21.23
2022-11-16T17:44:39.989Z,15.32
2022-11-16T17:47:07.950Z,22.10
2022-11-16T17:49:35.691Z,15.23
2022-11-16T17:52:03.530Z,18.75
2022-11-16T17:54:31.262Z,22.45
2022-11-16T17:56:59.136Z,14.85
2022-11-16T17:59:29.750Z,15.02
2022-11-16T18:01:58.318Z,20.05
2022-11-16T18:04:26.013Z,15.57
2022-11-16T18:06:53.721Z,15.88
2022-11-16T18:09:21.761Z,16.58
2022-11-16T18:11:49.724Z,34.28
2022-11-16T18:14:17.454Z,24.88
2022-11-16T18:16:45.286Z,17.35
2022-11-16T18:19:18.135Z,19.35
2022-11-16T18:21:46.785Z,16.65
2022-11-16T18:24:14.905Z,18.38
2022-11-16T18:26:42.798Z,13.75
2022-11-16T18:29:13.597Z,13.35
2022-11-16T18:31:41.667Z,16.58
2022-11-16T18:34:09.605Z,17.20
2022-11-16T18:36:37.571Z,13.30
2022-11-16T18:39:05.950Z,15.95
2022-11-16T18:41:34.010Z,15.63
2022-11-16T18:44:03.251Z,15.77
2022-11-16T18:46:33.431Z,15.00
2022-11-16T18:49:01.571Z,17.65
2022-11-16T18:51:30.317Z,18.33
2022-11-16T18:53:58.326Z,14.35
2022-11-16T18:56:27.839Z,18.02
2022-11-16T18:58:57.117Z,16.92
2022-11-16T19:01:27.137Z,15.77
2022-11-16T19:03:56.452Z,14.90
2022-11-16T19:06:24.986Z,16.25
2022-11-16T19:09:00.127Z,17.13
2022-11-16T19:11:30.241Z,17.02
2022-11-16T19:14:07.723Z,19.88
2022-11-16T19:16:43.392Z,15.88
2022-11-16T19:19:15.922Z,19.52
2022-11-16T19:21:43.843Z,44.65
2022-11-16T19:24:11.467Z,22.08
2022-11-16T19:26:39.950Z,17.00
2022-11-16T19:29:07.659Z,21.92
2022-11-16T19:31:35.438Z,19.13
2022-11-16T19:34:06.126Z,15.68
2022-11-16T19:36:36.180Z,16.23
2022-11-16T19:39:05.895Z,19.08
2022-11-16T19:41:34.698Z,17.00
2022-11-16T19:44:03.443Z,15.68
2022-11-16T19:46:34.620Z,19.90
2022-11-16T19:49:03.020Z,15.88
2022-11-16T19:51:35.132Z,14.32
2022-11-16T19:54:03.639Z,12.80
2022-11-16T19:56:33.439Z,13.43
2022-11-16T19:59:01.911Z,12.98
2022-11-16T20:01:33.389Z,16.10
2022-11-16T20:04:03.097Z,14.00
2022-11-16T20:06:33.086Z,12.93
2022-11-16T20:09:09.170Z,17.50
2022-11-16T20:11:41.220Z,13.43
2022-11-16T20:14:12.229Z,12.80
2022-11-16T20:16:42.550Z,11.05
2022-11-16T20:19:11.433Z,12.98
2022-11-16T20:21:44.967Z,14.07
2022-11-16T20:24:15.188Z,13.63
2022-11-16T20:26:47.282Z,13.57
2022-11-16T20:29:16.642Z,14.35
2022-11-16T20:31:46.639Z,13.30
2022-11-16T20:34:16.630Z,12.88
2022-11-16T20:36:46.969Z,13.88
2022-11-16T20:39:19.351Z,15.82
2022-11-16T20:41:48.968Z,14.50
2022-11-16T20:44:20.047Z,14.77
2022-11-16T20:46:47.793Z,13.40
2022-11-16T20:49:15.747Z,13.77
2022-11-16T20:51:43.498Z,9.05
2022-11-16T20:54:11.168Z,15.05
2022-11-16T20:56:38.827Z,10.80
2022-11-16T20:59:06.253Z,10.95
2022-11-16T21:01:33.600Z,14.68
2022-11-16T21:04:06.066Z,11.15
2022-11-16T21:06:34.404Z,11.00
2022-11-16T21:09:01.894Z,13.40
2022-11-16T21:11:30.891Z,10.02
2022-11-16T21:14:16.192Z,10.63
2022-11-16T21:16:44.022Z,10.57
2022-11-16T21:19:12.824Z,11.35
2022-11-16T21:21:40.994Z,17.23
2022-11-16T21:24:09.580Z,10.85
2022-11-16T21:26:37.786Z,11.68
2022-11-16T21:29:05.194Z,9.77
2022-11-16T21:31:34.555Z,14.13
2022-11-16T21:34:01.964Z,10.25
2022-11-16T21:36:31.370Z,12.52
2022-11-16T21:38:58.485Z,9.80
2022-11-16T21:41:26.007Z,10.98
2022-11-16T21:43:53.068Z,10.77
2022-11-16T21:46:27.912Z,12.15
2022-11-16T21:48:57.009Z,10.45
2022-11-16T21:51:26.402Z,10.30
2022-11-16T21:53:53.662Z,9.60
2022-11-16T21:56:23.216Z,10.38
2022-11-16T21:58:50.793Z,14.93
2022-11-16T22:01:17.839Z,9.65
2022-11-16T22:03:45.234Z,10.02
2022-11-16T22:06:34.769Z,7.78
2022-11-16T22:09:02.074Z,9.98
2022-11-16T22:11:29.132Z,10.32
2022-11-16T22:13:56.184Z,12.38
2022-11-16T22:16:23.697Z,11.27
2022-11-16T22:18:51.086Z,11.80
2022-11-16T22:21:18.278Z,11.90
2022-11-16T22:23:45.280Z,10.20
2022-11-16T22:26:14.124Z,10.85
2022-11-16T22:28:41.795Z,10.40
2022-11-16T22:31:13.407Z,11.40
2022-11-16T22:33:40.975Z,7.28
2022-11-16T22:36:10.313Z,10.80
2022-11-16T22:38:37.504Z,7.22
2022-11-16T22:41:05.156Z,10.20
2022-11-16T22:43:32.875Z,11.57
2022-11-16T22:46:02.115Z,9.95
2022-11-16T22:48:34.284Z,8.70
2022-11-16T22:51:07.369Z,8.50
2022-11-16T22:53:35.184Z,7.90
2022-11-16T22:56:10.044Z,9.20
2022-11-16T22:58:38.491Z,8.10
2022-11-16T23:01:07.726Z,7.63
2022-11-16T23:03:35.707Z,9.95
2022-11-16T23:06:05.201Z,12.15
2022-11-16T23:08:34.090Z,9.80
2022-11-16T23:11:20.881Z,9.02
2022-11-16T23:14:07.109Z,10.23
2022-11-16T23:16:34.121Z,8.55
2022-11-16T23:19:01.481Z,7.82
2022-11-16T23:21:47.127Z,11.38
2022-11-16T23:24:34.169Z,8.82
2022-11-16T23:27:22.746Z,8.68
2022-11-16T23:29:50.248Z,7.93
2022-11-16T23:32:17.479Z,9.10
2022-11-16T23:34:44.490Z,8.68
2022-11-16T23:37:11.494Z,7.82
2022-11-16T23:39:38.441Z,7.45
2022-11-16T23:42:24.031Z,10.30
2022-11-16T23:44:51.134Z,7.95
2022-11-16T23:47:18.108Z,8.68
2022-11-16T23:49:45.260Z,7.80
2022-11-16T23:52:12.293Z,8.05
2022-11-16T23:54:39.509Z,7.80
2022-11-16T23:57:06.889Z,6.95
2022-11-16T23:59:33.901Z,6.95
